Time;durP1;ratioP1;P1;durP2;ratioP2;P2;SDS_P1;SDS_P2;PMS_P1;PMS_P2;Temp;Humidity;BMP_temperature;BMP_pressure;BME280_temperature;BME280_humidity;BME280_pressure;Samples;Min_cycle;Max_cycle;Signal;HPM_P1;HPM_P2
2022/01/28 00:05:16;;;;;;;10.43;7.23;;;5.30;99.90;;;;;;5047360;28;20412;-73
2022/01/28 00:07:42;;;;;;;8.60;7.43;;;5.30;99.90;;;;;;5046933;28;20801;-70
2022/01/28 00:10:08;;;;;;;9.80;7.20;;;5.30;99.90;;;;;;5047189;28;20402;-72
2022/01/28 00:12:36;;;;;;;9.60;6.90;;;5.40;99.90;;;;;;5046735;28;20286;-74
2022/01/28 00:15:08;;;;;;;8.70;7.73;;;5.50;99.90;;;;;;5046871;28;20543;-70
2022/01/28 00:18:13;;;;;;;8.70;7.67;;;5.60;99.90;;;;;;5045985;28;20510;-72
2022/01/28 00:38:53;;;;;;;8.80;6.27;;;5.80;99.90;;;;;;5046839;28;20533;-71
2022/01/28 00:41:19;;;;;;;9.90;6.90;;;5.70;99.90;;;;;;5046422;28;20178;-72
2022/01/28 00:43:45;;;;;;;7.90;7.03;;;5.70;99.90;;;;;;5046784;28;20187;-71
2022/01/28 00:46:11;;;;;;;7.97;6.70;;;5.80;99.90;;;;;;5046485;28;20221;-73
2022/01/28 00:48:37;;;;;;;8.07;7.17;;;5.70;99.90;;;;;;5046270;28;20194;-70
2022/01/28 00:51:03;;;;;;;7.43;6.73;;;5.80;99.90;;;;;;5028486;28;20435;-72
2022/01/28 00:53:28;;;;;;;7.23;6.20;;;5.90;99.90;;;;;;5045774;28;20221;-72
2022/01/28 00:55:54;;;;;;;9.13;6.80;;;5.70;99.90;;;;;;5045695;28;20479;-72
2022/01/28 00:58:21;;;;;;;7.10;6.13;;;5.60;99.90;;;;;;5045971;28;21062;-69
2022/01/28 01:00:47;;;;;;;6.40;5.80;;;5.60;99.90;;;;;;5046240;28;20281;-74
2022/01/28 01:03:12;;;;;;;7.37;6.20;;;5.60;99.90;;;;;;5046028;28;20542;-74
2022/01/28 01:05:38;;;;;;;10.43;6.73;;;5.70;99.90;;;;;;5046293;28;20457;-72
2022/01/28 01:08:05;;;;;;;8.27;6.70;;;5.60;99.90;;;;;;5045767;28;20233;-72
2022/01/28 01:10:32;;;;;;;6.40;5.80;;;5.70;99.90;;;;;;5045929;28;20175;-70
2022/01/28 01:12:58;;;;;;;8.00;6.40;;;5.50;99.90;;;;;;5045552;28;20413;-74
2022/01/28 01:15:29;;;;;;;8.93;7.00;;;5.60;99.90;;;;;;5046128;28;20452;-72
2022/01/28 01:18:18;;;;;;;6.87;6.17;;;5.60;99.90;;;;;;5045887;28;20465;-70
2022/01/28 01:23:37;;;;;;;6.53;5.93;;;5.40;99.90;;;;;;5046107;28;20410;-73
2022/01/28 01:28:32;;;;;;;5.60;5.10;;;5.30;99.90;;;;;;5045819;28;20469;-70
2022/01/28 01:31:00;;;;;;;10.27;7.13;;;5.20;99.90;;;;;;5045815;28;20413;-71
2022/01/28 01:33:28;;;;;;;7.23;5.93;;;5.20;99.90;;;;;;5071069;22;20857;-76
2022/01/28 01:35:53;;;;;;;8.70;6.27;;;5.10;99.90;;;;;;5066460;28;20419;-76
2022/01/28 01:38:24;;;;;;;7.53;6.70;;;5.20;99.90;;;;;;5065840;28;20412;-76
2022/01/28 01:40:53;;;;;;;7.80;6.50;;;5.20;99.90;;;;;;5066822;28;20174;-75
2022/01/28 01:43:35;;;;;;;7.70;6.60;;;5.20;99.90;;;;;;5065803;28;20439;-77
2022/01/28 01:54:01;;;;;;;8.17;6.70;;;4.80;99.90;;;;;;5065966;28;20958;-77
2022/01/28 01:56:28;;;;;;;8.77;6.37;;;4.80;99.90;;;;;;5066239;28;20528;-76
2022/01/28 01:58:56;;;;;;;8.37;7.17;;;4.90;99.90;;;;;;5066025;28;20408;-76
2022/01/28 02:01:22;;;;;;;8.60;7.17;;;4.90;99.90;;;;;;5066521;28;20415;-76
2022/01/28 02:03:47;;;;;;;8.13;6.30;;;4.90;99.90;;;;;;5065861;28;20439;-77
2022/01/28 02:06:17;;;;;;;6.37;5.77;;;4.90;99.90;;;;;;5066551;28;20473;-76
2022/01/28 02:08:44;;;;;;;9.07;7.90;;;4.90;99.90;;;;;;5066585;28;20185;-76
2022/01/28 02:11:09;;;;;;;9.80;7.23;;;4.80;99.90;;;;;;5065812;28;20414;-76
2022/01/28 02:13:37;;;;;;;7.23;6.53;;;4.90;99.90;;;;;;5065548;28;20427;-77
2022/01/28 02:16:03;;;;;;;8.40;7.50;;;5.00;99.90;;;;;;5065939;28;20265;-76
2022/01/28 02:18:29;;;;;;;7.83;6.57;;;5.00;99.90;;;;;;5047471;28;20472;-75
2022/01/28 02:21:02;;;;;;;6.47;5.80;;;5.10;99.90;;;;;;5065819;28;20495;-76
2022/01/28 02:23:28;;;;;;;8.33;7.13;;;5.00;99.90;;;;;;5064817;28;20201;-76
2022/01/28 02:25:56;;;;;;;7.87;5.77;;;4.90;99.90;;;;;;5065263;28;20561;-76
2022/01/28 02:28:24;;;;;;;10.97;7.20;;;5.00;99.90;;;;;;5064762;28;20170;-76
2022/01/28 02:30:49;;;;;;;8.60;6.60;;;4.90;99.90;;;;;;5063696;28;21839;-76
2022/01/28 02:33:21;;;;;;;6.67;5.97;;;4.90;99.90;;;;;;5065147;28;20539;-75
2022/01/28 02:35:48;;;;;;;7.30;6.20;;;4.80;99.90;;;;;;5065413;28;20261;-77
2022/01/28 02:38:15;;;;;;;6.77;5.83;;;4.90;99.90;;;;;;5064762;28;20420;-77
2022/01/28 02:40:47;;;;;;;7.53;6.70;;;5.00;99.90;;;;;;5064028;28;20424;-76
2022/01/28 02:46:05;;;;;;;7.17;6.47;;;4.90;99.90;;;;;;5064806;28;20521;-76
2022/01/28 02:48:33;;;;;;;6.73;6.00;;;4.90;99.90;;;;;;5065082;28;20420;-75
2022/01/28 02:53:37;;;;;;;7.30;6.03;;;5.10;99.90;;;;;;5047051;28;20534;-76
2022/01/28 02:56:11;;;;;;;7.83;6.50;;;5.10;99.90;;;;;;5046707;28;20181;-77
2022/01/28 02:58:37;;;;;;;8.13;5.50;;;4.90;99.90;;;;;;5046420;28;20415;-76
2022/01/28 03:01:03;;;;;;;8.50;6.23;;;4.80;99.90;;;;;;5064224;28;20408;-77
2022/01/28 03:03:29;;;;;;;6.83;5.27;;;4.80;99.90;;;;;;5065147;28;20572;-77
2022/01/28 03:05:55;;;;;;;6.90;5.90;;;4.70;99.90;;;;;;5064979;28;20444;-77
2022/01/28 03:08:24;;;;;;;7.10;5.20;;;4.70;99.90;;;;;;5065153;28;20243;-77
2022/01/28 03:16:12;;;;;;;7.20;6.00;;;4.60;99.90;;;;;;5068747;28;20412;-78
2022/01/28 03:18:54;;;;;;;6.50;5.80;;;4.60;99.90;;;;;;5067068;28;20713;-78
2022/01/28 03:23:55;;;;;;;8.20;5.20;;;4.80;99.90;;;;;;5065808;28;20447;-77
2022/01/28 03:26:24;;;;;;;7.73;5.70;;;4.80;99.90;;;;;;5046650;28;20517;-75
2022/01/28 03:28:50;;;;;;;6.77;5.53;;;4.80;99.90;;;;;;5065390;28;20446;-77
2022/01/28 03:31:15;;;;;;;9.73;5.77;;;4.80;99.90;;;;;;5065405;28;20432;-77
2022/01/28 03:33:41;;;;;;;6.27;5.67;;;4.80;99.90;;;;;;5065332;28;20464;-76
2022/01/28 03:36:09;;;;;;;5.70;5.10;;;4.70;99.90;;;;;;5065610;28;20783;-77
2022/01/28 03:38:36;;;;;;;6.83;5.50;;;4.70;99.90;;;;;;5065495;28;20245;-77
2022/01/28 03:41:01;;;;;;;7.83;6.33;;;4.80;99.90;;;;;;5063754;28;20423;-77
2022/01/28 03:43:27;;;;;;;6.67;5.53;;;4.80;99.90;;;;;;5065397;28;20950;-76
2022/01/28 03:45:52;;;;;;;8.33;7.40;;;4.90;99.90;;;;;;5063703;28;20194;-76
2022/01/28 03:48:18;;;;;;;8.53;6.13;;;5.00;99.90;;;;;;5064980;28;20177;-76
2022/01/28 03:50:44;;;;;;;7.83;6.37;;;5.10;99.90;;;;;;5064656;28;20206;-76
2022/01/28 03:53:10;;;;;;;9.30;5.83;;;4.90;99.90;;;;;;5049997;28;20198;-76
2022/01/28 03:55:36;;;;;;;7.17;6.30;;;5.10;99.90;;;;;;5065575;28;20654;-76
2022/01/28 03:58:02;;;;;;;7.43;6.63;;;5.10;99.90;;;;;;5047790;28;20642;-76
2022/01/28 04:00:30;;;;;;;7.60;6.33;;;5.10;99.90;;;;;;5047278;28;20412;-76
2022/01/28 04:13:45;;;;;;;7.40;5.73;;;5.20;99.90;;;;;;5064902;28;20428;-75
2022/01/28 04:18:42;;;;;;;7.83;5.97;;;5.20;99.90;;;;;;5064484;28;20388;-77
2022/01/28 04:21:08;;;;;;;5.57;4.97;;;5.10;99.90;;;;;;5064637;28;20787;-77
2022/01/28 04:23:34;;;;;;;7.07;6.37;;;5.20;99.90;;;;;;5045774;28;20212;-77
2022/01/28 04:25:59;;;;;;;7.90;6.30;;;5.10;99.90;;;;;;5063127;28;20292;-77
2022/01/28 04:28:25;;;;;;;7.03;5.63;;;5.20;99.90;;;;;;5047005;28;20182;-76
2022/01/28 04:30:50;;;;;;;9.67;7.30;;;5.00;99.90;;;;;;5047403;28;20181;-76
2022/01/28 04:33:16;;;;;;;7.63;6.40;;;5.00;99.90;;;;;;5068748;28;20264;-77
2022/01/28 04:35:42;;;;;;;9.17;6.80;;;4.80;99.90;;;;;;5068197;28;20206;-75
2022/01/28 04:40:56;;;;;;;11.53;6.27;;;4.90;99.90;;;;;;5067158;28;20761;-75
2022/01/28 04:43:29;;;;;;;9.83;5.97;;;5.00;99.90;;;;;;5067260;28;20486;-75
2022/01/28 04:46:05;;;;;;;7.70;6.70;;;4.80;99.90;;;;;;5067324;28;20509;-75
2022/01/28 04:48:39;;;;;;;6.70;6.00;;;4.70;99.90;;;;;;5048653;28;20481;-76
2022/01/28 04:56:26;;;;;;;12.00;6.93;;;4.60;99.90;;;;;;5067254;28;20400;-77
2022/01/28 05:06:51;;;;;;;8.47;6.60;;;4.80;99.90;;;;;;5067172;28;20193;-77
2022/01/28 05:28:23;;;;;;;10.13;7.30;;;4.60;99.90;;;;;;5066888;28;20392;-76
2022/01/28 05:30:49;;;;;;;11.63;7.40;;;4.40;99.90;;;;;;5066238;28;20412;-76
2022/01/28 05:33:15;;;;;;;13.67;7.73;;;4.40;99.90;;;;;;5066182;28;20470;-77
2022/01/28 05:35:41;;;;;;;9.20;6.90;;;4.50;99.90;;;;;;5066609;28;20420;-76
2022/01/28 05:38:06;;;;;;;9.23;6.43;;;4.40;99.90;;;;;;5067221;28;20178;-77
2022/01/28 05:40:32;;;;;;;9.40;7.63;;;4.50;99.90;;;;;;5049285;28;20800;-75
2022/01/28 05:42:57;;;;;;;8.70;7.80;;;4.50;99.90;;;;;;5048369;28;20235;-75
2022/01/28 05:45:23;;;;;;;12.07;7.73;;;4.50;99.90;;;;;;5069485;28;20217;-75
2022/01/28 05:47:49;;;;;;;8.80;7.80;;;4.40;99.90;;;;;;5048647;28;20895;-75
2022/01/28 05:50:14;;;;;;;8.87;7.30;;;4.40;99.90;;;;;;5048349;28;20666;-76
2022/01/28 05:52:40;;;;;;;10.23;7.73;;;4.40;99.90;;;;;;5047250;28;20248;-77
2022/01/28 05:55:06;;;;;;;7.43;6.57;;;4.40;99.90;;;;;;5066346;28;20182;-76
2022/01/28 05:57:32;;;;;;;9.60;7.13;;;4.40;99.90;;;;;;5065846;28;20630;-76
2022/01/28 05:59:57;;;;;;;11.37;8.03;;;4.30;99.90;;;;;;5065746;28;20457;-77
2022/01/28 06:02:23;;;;;;;9.10;7.03;;;4.30;99.90;;;;;;5047001;28;20247;-77
2022/01/28 06:04:49;;;;;;;10.17;6.97;;;4.30;99.90;;;;;;5065876;28;20182;-76
2022/01/28 06:07:15;;;;;;;10.87;7.80;;;4.30;99.90;;;;;;5065209;28;20442;-77
2022/01/28 06:09:41;;;;;;;9.50;8.40;;;4.30;99.90;;;;;;5066353;28;20782;-77
2022/01/28 06:12:07;;;;;;;9.43;7.43;;;4.20;99.90;;;;;;5065483;28;20415;-76
2022/01/28 06:14:33;;;;;;;11.70;8.00;;;4.30;99.90;;;;;;5066340;28;20170;-75
2022/01/28 06:16:59;;;;;;;8.50;7.60;;;4.30;99.90;;;;;;5064609;28;20424;-75
2022/01/28 06:19:24;;;;;;;9.70;7.53;;;4.30;99.90;;;;;;5066321;28;20263;-76
2022/01/28 06:21:50;;;;;;;11.50;8.80;;;4.30;99.90;;;;;;5065786;28;20258;-77
2022/01/28 06:24:16;;;;;;;13.10;7.33;;;4.30;99.90;;;;;;5065405;28;20209;-76
2022/01/28 06:26:42;;;;;;;11.97;7.50;;;4.30;99.90;;;;;;5047061;28;20682;-76
2022/01/28 06:29:08;;;;;;;7.43;6.70;;;4.30;99.90;;;;;;5065680;28;20470;-76
2022/01/28 06:31:34;;;;;;;8.63;6.60;;;4.30;99.90;;;;;;5065507;28;20178;-77
2022/01/28 06:33:59;;;;;;;10.07;7.30;;;4.40;99.90;;;;;;5063969;28;20220;-77
2022/01/28 06:36:25;;;;;;;10.10;7.37;;;4.40;99.90;;;;;;5065725;28;20420;-78
2022/01/28 06:38:50;;;;;;;8.77;7.67;;;4.30;99.90;;;;;;5065289;28;20220;-77
2022/01/28 06:41:16;;;;;;;9.10;6.97;;;4.30;99.90;;;;;;5065204;28;20190;-77
2022/01/28 06:43:42;;;;;;;10.67;7.60;;;4.30;99.90;;;;;;5065408;28;20198;-76
2022/01/28 06:46:07;;;;;;;9.10;7.70;;;4.40;99.90;;;;;;5065499;28;20666;-77
2022/01/28 06:48:33;;;;;;;11.47;8.40;;;4.40;99.90;;;;;;5065501;28;20180;-77
2022/01/28 06:50:59;;;;;;;10.37;8.40;;;4.30;99.90;;;;;;5046961;28;20188;-77
2022/01/28 06:53:25;;;;;;;11.20;8.10;;;4.40;99.90;;;;;;5063919;28;20222;-77
2022/01/28 06:55:50;;;;;;;9.47;7.10;;;4.40;99.90;;;;;;5065563;28;20914;-76
2022/01/28 06:58:16;;;;;;;9.10;7.17;;;4.30;99.90;;;;;;5064826;28;20185;-79
2022/01/28 07:00:42;;;;;;;10.63;7.90;;;4.30;99.90;;;;;;5064491;28;20177;-76
2022/01/28 07:03:12;;;;;;;9.80;7.83;;;4.30;99.90;;;;;;5064178;28;20700;-77
2022/01/28 07:05:38;;;;;;;11.63;9.00;;;4.30;99.90;;;;;;5064617;28;20201;-77
2022/01/28 07:08:05;;;;;;;11.23;8.57;;;4.30;99.90;;;;;;5046306;28;20434;-77
2022/01/28 07:10:31;;;;;;;10.63;8.60;;;4.30;99.90;;;;;;5064296;28;20920;-76
2022/01/28 07:12:57;;;;;;;10.87;7.83;;;4.20;99.90;;;;;;5064402;28;20440;-76
2022/01/28 07:15:24;;;;;;;11.90;9.60;;;4.10;99.90;;;;;;5064522;28;20426;-77
2022/01/28 07:17:54;;;;;;;11.07;8.40;;;4.10;99.90;;;;;;5064271;28;20613;-76
2022/01/28 07:20:20;;;;;;;9.63;7.80;;;4.00;99.90;;;;;;5063199;28;20428;-77
2022/01/28 07:22:46;;;;;;;13.73;8.33;;;4.10;99.90;;;;;;5064056;28;20454;-76
2022/01/28 07:25:12;;;;;;;13.27;7.90;;;4.10;99.90;;;;;;5064449;28;20212;-75
2022/01/28 07:27:37;;;;;;;11.73;7.77;;;4.20;99.90;;;;;;5063988;28;20463;-77
2022/01/28 07:30:05;;;;;;;10.57;7.70;;;4.10;99.90;;;;;;5046329;28;20265;-77
2022/01/28 07:35:09;;;;;;;9.13;7.40;;;4.20;99.90;;;;;;5061777;28;20487;-70
2022/01/28 07:37:35;;;;;;;11.73;8.00;;;4.10;99.90;;;;;;5064040;28;21003;-70
2022/01/28 07:40:03;;;;;;;10.80;8.47;;;4.30;99.90;;;;;;5063322;28;20420;-70
2022/01/28 07:42:35;;;;;;;14.13;10.20;;;4.30;99.90;;;;;;5063998;28;20220;-72
2022/01/28 07:45:00;;;;;;;10.50;9.33;;;4.40;99.90;;;;;;5044354;28;20417;-71
2022/01/28 07:47:26;;;;;;;9.90;8.13;;;4.50;99.90;;;;;;5043967;28;20825;-71
2022/01/28 07:49:52;;;;;;;9.43;7.20;;;4.50;99.90;;;;;;5042971;28;20236;-71
2022/01/28 07:52:17;;;;;;;10.20;8.57;;;4.50;99.90;;;;;;5043421;28;20970;-69
2022/01/28 07:54:49;;;;;;;8.43;7.17;;;4.50;99.90;;;;;;5043556;28;20206;-71
2022/01/28 07:57:15;;;;;;;11.00;8.33;;;4.60;99.90;;;;;;5043235;28;20185;-71
2022/01/28 07:59:41;;;;;;;11.43;8.87;;;4.80;99.90;;;;;;5043189;28;20425;-70
2022/01/28 08:02:07;;;;;;;13.10;8.07;;;4.60;99.90;;;;;;5043443;28;21143;-68
2022/01/28 08:04:33;;;;;;;10.20;8.80;;;4.80;99.90;;;;;;5042656;28;20194;-70
2022/01/28 08:06:58;;;;;;;13.90;8.33;;;4.80;99.90;;;;;;5047501;28;20448;-69
2022/01/28 08:09:24;;;;;;;12.03;8.30;;;4.80;99.90;;;;;;5047205;28;20186;-70
2022/01/28 08:11:49;;;;;;;9.23;7.90;;;4.80;99.90;;;;;;5047155;28;20277;-70
2022/01/28 08:14:15;;;;;;;12.80;8.13;;;5.00;99.90;;;;;;5047460;28;20277;-71
2022/01/28 08:16:41;;;;;;;8.03;6.83;;;4.90;99.90;;;;;;5047343;28;20182;-69
2022/01/28 08:19:07;;;;;;;8.70;7.63;;;5.00;99.90;;;;;;5047176;28;20205;-70
2022/01/28 08:21:32;;;;;;;8.73;7.83;;;5.00;99.90;;;;;;5047213;28;20182;-70
2022/01/28 08:23:58;;;;;;;15.10;8.17;;;5.10;99.90;;;;;;5028954;28;20206;-71
2022/01/28 08:26:24;;;;;;;9.00;6.83;;;5.20;99.90;;;;;;5046848;28;20249;-69
2022/01/28 08:28:49;;;;;;;9.53;6.77;;;5.20;99.90;;;;;;5045995;28;20174;-70
2022/01/28 08:31:15;;;;;;;8.87;5.93;;;5.30;99.90;;;;;;5047204;28;20455;-70
2022/01/28 08:33:41;;;;;;;10.63;6.80;;;5.30;99.90;;;;;;5046934;28;20316;-69
2022/01/28 08:36:06;;;;;;;9.90;6.57;;;5.40;99.90;;;;;;5047255;28;20174;-69
2022/01/28 08:38:38;;;;;;;10.00;6.57;;;5.60;99.90;;;;;;5044299;28;20700;-70
2022/01/28 08:41:04;;;;;;;9.70;7.40;;;5.60;99.90;;;;;;5046622;28;20231;-70
2022/01/28 08:43:32;;;;;;;8.13;6.17;;;5.90;99.90;;;;;;5046169;28;20433;-70
2022/01/28 08:45:58;;;;;;;9.63;7.07;;;5.70;99.90;;;;;;5046925;28;20444;-70
2022/01/28 08:48:24;;;;;;;10.30;6.33;;;5.70;99.90;;;;;;5046336;28;20418;-70
2022/01/28 08:50:50;;;;;;;7.10;5.90;;;5.70;99.90;;;;;;5046793;28;21048;-68
2022/01/28 08:53:15;;;;;;;8.60;6.20;;;5.80;99.90;;;;;;5046425;28;20190;-72
2022/01/28 08:55:41;;;;;;;8.70;6.70;;;5.90;99.90;;;;;;5047044;28;20205;-71
2022/01/28 08:58:08;;;;;;;7.77;6.37;;;6.00;99.90;;;;;;5045645;28;20171;-71
2022/01/28 09:00:34;;;;;;;9.63;6.20;;;6.00;99.90;;;;;;5046282;28;20204;-70
2022/01/28 09:02:59;;;;;;;8.57;7.23;;;6.10;99.90;;;;;;5028697;28;20433;-71
2022/01/28 09:05:25;;;;;;;9.33;7.20;;;6.10;99.90;;;;;;5045720;28;20174;-71
2022/01/28 09:07:51;;;;;;;8.23;6.00;;;6.10;99.90;;;;;;5046322;28;20268;-71
2022/01/28 09:10:24;;;;;;;8.47;6.10;;;6.10;99.90;;;;;;5046268;28;20430;-70
2022/01/28 09:13:20;;;;;;;8.33;6.50;;;6.00;99.90;;;;;;5046130;28;20651;-69
2022/01/28 09:15:46;;;;;;;7.83;6.30;;;6.10;99.90;;;;;;5045785;28;20409;-70
2022/01/28 09:18:12;;;;;;;8.77;5.90;;;6.20;99.90;;;;;;5045140;28;20417;-70
2022/01/28 09:20:38;;;;;;;8.13;5.50;;;6.30;99.90;;;;;;5046217;28;20762;-70
2022/01/28 09:23:06;;;;;;;10.57;6.00;;;6.30;99.90;;;;;;5045653;28;20202;-69
2022/01/28 09:25:33;;;;;;;8.90;5.83;;;6.40;99.90;;;;;;5045667;28;20496;-70
2022/01/28 09:27:59;;;;;;;7.83;5.73;;;6.40;99.90;;;;;;5045485;28;20422;-71
2022/01/28 09:30:25;;;;;;;10.90;6.67;;;6.40;99.90;;;;;;5044985;28;20444;-70
2022/01/28 09:32:51;;;;;;;10.60;6.00;;;6.60;99.90;;;;;;5045847;28;20583;-70
2022/01/28 09:35:17;;;;;;;5.20;4.70;;;6.50;99.90;;;;;;5045464;28;20274;-69
2022/01/28 09:37:43;;;;;;;9.27;4.90;;;6.60;99.90;;;;;;5045451;28;20559;-71
2022/01/28 09:40:10;;;;;;;6.50;5.20;;;6.50;99.90;;;;;;5027330;28;20657;-70
2022/01/28 09:42:40;;;;;;;6.93;4.80;;;6.60;99.90;;;;;;5045271;28;20796;-68
2022/01/28 09:45:09;;;;;;;7.37;5.07;;;6.60;99.90;;;;;;5045448;28;20407;-69
2022/01/28 09:47:35;;;;;;;6.20;4.60;;;6.80;99.90;;;;;;5045442;28;20445;-71
2022/01/28 09:50:01;;;;;;;6.27;4.27;;;7.00;99.90;;;;;;5045355;28;20417;-71
2022/01/28 09:52:27;;;;;;;5.67;3.73;;;7.20;99.90;;;;;;5045368;28;20175;-70
2022/01/28 09:54:53;;;;;;;7.00;4.10;;;7.30;99.90;;;;;;5045314;28;20430;-70
2022/01/28 09:57:19;;;;;;;6.73;3.40;;;7.30;99.90;;;;;;5044761;28;20269;-69
2022/01/28 09:59:45;;;;;;;6.70;4.30;;;7.40;99.90;;;;;;5045954;28;20645;-70
2022/01/28 10:02:11;;;;;;;6.73;3.20;;;7.50;99.90;;;;;;5044960;28;20798;-70
2022/01/28 10:04:37;;;;;;;5.60;3.60;;;7.60;99.90;;;;;;5045335;28;20438;-71
2022/01/28 10:07:14;;;;;;;8.20;4.30;;;7.50;99.90;;;;;;5044964;28;20679;-71
2022/01/28 10:09:57;;;;;;;6.70;3.03;;;7.60;99.90;;;;;;5045316;28;20178;-70
2022/01/28 10:12:40;;;;;;;8.60;3.30;;;7.60;99.90;;;;;;5044139;28;20459;-70
2022/01/28 10:15:17;;;;;;;6.00;2.60;;;7.50;99.90;;;;;;5045004;28;21186;-71
2022/01/28 10:17:58;;;;;;;7.57;3.00;;;7.60;99.90;;;;;;5045075;28;20781;-69
2022/01/28 10:20:25;;;;;;;4.20;2.77;;;7.70;99.90;;;;;;5026768;28;20426;-71
2022/01/28 10:22:57;;;;;;;7.30;3.07;;;7.80;99.90;;;;;;5044610;28;20466;-70
2022/01/28 10:25:36;;;;;;;5.57;2.70;;;7.50;99.90;;;;;;5044693;28;20411;-71
2022/01/28 10:28:07;;;;;;;9.07;2.80;;;7.50;99.90;;;;;;5043724;28;20557;-70
2022/01/28 10:30:38;;;;;;;4.03;3.00;;;7.70;99.90;;;;;;5044805;28;21426;-71
2022/01/28 10:33:22;;;;;;;8.27;3.13;;;7.60;99.90;;;;;;5044297;28;20973;-71
2022/01/28 10:36:01;;;;;;;5.63;3.03;;;7.80;99.90;;;;;;5044483;28;20419;-70
2022/01/28 10:38:28;;;;;;;5.17;3.00;;;7.80;99.90;;;;;;5044706;28;20428;-71
2022/01/28 10:41:14;;;;;;;6.07;3.10;;;7.80;99.90;;;;;;5043899;28;20421;-70
2022/01/28 10:43:51;;;;;;;6.33;3.40;;;7.50;99.90;;;;;;5044312;28;20432;-71
2022/01/28 10:46:34;;;;;;;5.43;3.13;;;7.50;99.90;;;;;;5027425;28;20537;-70
2022/01/28 10:49:05;;;;;;;5.13;3.03;;;7.80;99.90;;;;;;5043903;28;20399;-70
2022/01/28 10:51:41;;;;;;;5.10;2.97;;;7.90;99.90;;;;;;5043926;28;20413;-69
2022/01/28 10:54:13;;;;;;;3.90;2.70;;;8.00;99.90;;;;;;5043772;28;20441;-71
2022/01/28 10:56:57;;;;;;;5.57;3.17;;;8.20;99.90;;;;;;5044191;28;20419;-70
2022/01/28 10:59:26;;;;;;;5.77;2.90;;;8.00;99.90;;;;;;5026329;28;20411;-70
2022/01/28 11:01:53;;;;;;;5.70;2.63;;;8.00;99.90;;;;;;5044092;28;20897;-70
2022/01/28 11:04:20;;;;;;;9.00;3.70;;;7.80;99.90;;;;;;5043677;28;20443;-71
2022/01/28 11:06:47;;;;;;;7.47;3.00;;;7.90;99.90;;;;;;5044248;28;20459;-70
2022/01/28 11:09:15;;;;;;;5.20;3.43;;;8.00;99.90;;;;;;5043783;28;20804;-70
2022/01/28 11:11:41;;;;;;;10.90;7.97;;;7.80;99.90;;;;;;5026070;28;20432;-71
2022/01/28 11:14:07;;;;;;;12.83;6.63;;;7.90;99.90;;;;;;5043899;28;20436;-71
2022/01/28 11:16:33;;;;;;;4.87;2.17;;;7.90;99.90;;;;;;5043840;28;20191;-69
2022/01/28 11:18:59;;;;;;;7.83;3.17;;;7.80;99.90;;;;;;5025955;28;20427;-70
2022/01/28 11:21:44;;;;;;;6.50;2.40;;;7.90;99.90;;;;;;5044010;28;20444;-70
2022/01/28 11:24:15;;;;;;;6.33;4.10;;;7.80;99.90;;;;;;5043171;28;20446;-71
2022/01/28 11:27:01;;;;;;;18.47;16.57;;;7.70;99.90;;;;;;5043379;28;20454;-70
2022/01/28 11:29:28;;;;;;;6.67;4.10;;;7.70;99.90;;;;;;5043992;28;20412;-71
2022/01/28 11:32:09;;;;;;;3.40;3.10;;;8.20;99.90;;;;;;5042912;28;20454;-69
2022/01/28 11:34:36;;;;;;;4.90;2.70;;;8.70;99.90;;;;;;5043023;28;20996;-69
2022/01/28 11:37:04;;;;;;;4.80;3.07;;;8.60;99.90;;;;;;5025572;28;20939;-70
2022/01/28 11:39:39;;;;;;;4.67;2.43;;;8.60;99.90;;;;;;5043053;28;20519;-71
2022/01/28 11:42:10;;;;;;;4.57;2.30;;;8.70;99.90;;;;;;5048114;28;20451;-71
2022/01/28 11:44:54;;;;;;;6.43;2.90;;;8.40;99.90;;;;;;5046783;28;20448;-72
2022/01/28 11:47:27;;;;;;;4.60;2.40;;;8.20;99.90;;;;;;5047276;28;20460;-70
2022/01/28 11:50:09;;;;;;;8.13;2.40;;;7.90;99.90;;;;;;5046605;28;20476;-70
2022/01/28 11:52:46;;;;;;;10.57;2.30;;;8.00;99.90;;;;;;5047609;28;20438;-71
2022/01/28 11:55:17;;;;;;;4.57;2.70;;;8.30;99.90;;;;;;5047087;28;20830;-71
2022/01/28 11:58:10;;;;;;;7.10;2.50;;;8.30;99.90;;;;;;5047617;28;20676;-71
2022/01/28 12:00:44;;;;;;;7.30;2.33;;;8.00;99.90;;;;;;5046367;28;20427;-70
2022/01/28 12:03:20;;;;;;;3.97;3.40;;;7.80;99.90;;;;;;5029019;28;20894;-69
2022/01/28 12:05:46;;;;;;;6.07;2.70;;;7.60;99.90;;;;;;5046310;28;20458;-70
2022/01/28 12:08:13;;;;;;;7.03;3.07;;;7.60;99.90;;;;;;5028886;28;21006;-72
2022/01/28 12:10:44;;;;;;;5.40;2.87;;;7.90;99.90;;;;;;5047521;28;20250;-71
2022/01/28 12:13:16;;;;;;;6.83;3.10;;;7.90;99.90;;;;;;5046107;28;20448;-71
2022/01/28 12:15:59;;;;;;;3.90;2.47;;;7.80;99.90;;;;;;5029536;28;20420;-69
2022/01/28 12:18:25;;;;;;;3.97;2.33;;;7.70;99.90;;;;;;5046399;28;20422;-71
2022/01/28 12:20:52;;;;;;;6.13;2.70;;;8.00;99.90;;;;;;5047077;28;20415;-71
2022/01/28 12:23:18;;;;;;;10.60;3.03;;;8.70;99.90;;;;;;5046216;28;21537;-71
2022/01/28 12:25:44;;;;;;;5.83;2.40;;;9.50;99.90;;;;;;5047174;28;20462;-72
2022/01/28 12:28:18;;;;;;;6.87;3.50;;;10.00;99.90;;;;;;5047601;28;20183;-71
2022/01/28 12:31:03;;;;;;;8.37;3.03;;;9.40;99.90;;;;;;5047156;28;20523;-71
2022/01/28 12:33:35;;;;;;;5.00;3.00;;;9.00;99.90;;;;;;5045961;28;20493;-69
2022/01/28 12:36:16;;;;;;;3.43;2.70;;;8.90;99.90;;;;;;5046562;28;20447;-71
2022/01/28 12:41:41;;;;;;;7.70;3.77;;;8.50;99.90;;;;;;5046157;28;20543;-70
2022/01/28 12:44:07;;;;;;;6.30;4.10;;;8.40;99.90;;;;;;5027957;28;20541;-71
2022/01/28 12:46:36;;;;;;;5.37;3.30;;;8.30;99.90;;;;;;5046101;28;20448;-70
2022/01/28 12:49:02;;;;;;;8.97;4.10;;;8.50;99.90;;;;;;5045443;28;20780;-69
2022/01/28 12:51:28;;;;;;;8.30;3.53;;;8.80;99.90;;;;;;5044771;28;20405;-70
2022/01/28 12:53:54;;;;;;;6.37;3.30;;;9.50;99.90;;;;;;5045599;28;20612;-69
2022/01/28 12:56:40;;;;;;;6.33;4.57;;;9.60;99.90;;;;;;5045788;28;20551;-71
2022/01/28 12:59:06;;;;;;;9.57;4.60;;;9.00;99.90;;;;;;5045482;28;20415;-70
2022/01/28 13:01:32;;;;;;;8.73;4.30;;;8.50;99.90;;;;;;5045783;28;20478;-70
2022/01/28 13:04:10;;;;;;;4.90;3.70;;;8.40;99.90;;;;;;5027981;28;20443;-70
2022/01/28 13:09:14;;;;;;;10.10;4.20;;;8.00;99.90;;;;;;5046248;28;20419;-69
2022/01/28 13:11:44;;;;;;;6.23;3.90;;;8.00;99.90;;;;;;5045898;28;20404;-70
2022/01/28 13:14:11;;;;;;;4.57;3.73;;;8.00;99.90;;;;;;5046214;28;20527;-70
2022/01/28 13:16:43;;;;;;;5.20;4.30;;;8.10;99.90;;;;;;5046121;28;20413;-70
2022/01/28 13:19:12;;;;;;;7.33;4.10;;;8.20;99.90;;;;;;5028374;28;20422;-70
2022/01/28 13:21:38;;;;;;;7.10;4.37;;;8.30;99.90;;;;;;5045909;28;20488;-70
2022/01/28 13:24:08;;;;;;;6.90;4.23;;;8.20;99.90;;;;;;5045847;28;20428;-71
2022/01/28 13:26:50;;;;;;;6.40;4.80;;;8.20;99.90;;;;;;5027667;28;20460;-69
2022/01/28 13:29:16;;;;;;;7.57;5.10;;;8.10;99.90;;;;;;5044593;28;20427;-71
2022/01/28 13:31:41;;;;;;;9.77;5.40;;;7.90;99.90;;;;;;5045768;28;20407;-70
2022/01/28 13:34:10;;;;;;;10.00;5.97;;;7.70;99.90;;;;;;5045403;28;20243;-71
2022/01/28 13:36:47;;;;;;;7.07;5.63;;;7.70;99.90;;;;;;5045684;28;20652;-70
2022/01/28 13:39:31;;;;;;;11.97;5.57;;;7.70;99.90;;;;;;5045502;28;20417;-72
2022/01/28 13:42:08;;;;;;;8.60;5.67;;;7.60;99.90;;;;;;5045081;28;20475;-70
2022/01/28 13:44:34;;;;;;;8.83;5.50;;;7.80;99.90;;;;;;5044713;28;20458;-70
2022/01/28 13:47:02;;;;;;;9.17;5.30;;;7.80;99.90;;;;;;5045099;28;21187;-73
2022/01/28 13:49:33;;;;;;;9.80;6.00;;;7.80;99.90;;;;;;5044796;28;20878;-72
2022/01/28 13:52:13;;;;;;;9.47;6.10;;;7.70;99.90;;;;;;5045449;28;20445;-72
2022/01/28 13:54:39;;;;;;;6.83;5.30;;;7.50;99.90;;;;;;5044928;28;20547;-71
2022/01/28 13:57:06;;;;;;;9.53;6.33;;;7.60;99.90;;;;;;5045030;28;20520;-72
2022/01/28 13:59:34;;;;;;;9.40;7.00;;;7.60;99.90;;;;;;5044904;28;20203;-71
2022/01/28 14:02:00;;;;;;;8.77;6.00;;;7.60;99.90;;;;;;5045374;28;20423;-69
2022/01/28 14:04:37;;;;;;;6.60;5.90;;;7.60;99.90;;;;;;5045007;28;20432;-71
2022/01/28 14:07:15;;;;;;;9.30;7.00;;;7.60;99.90;;;;;;5027343;28;20462;-70
2022/01/28 14:09:55;;;;;;;7.10;6.17;;;7.60;99.90;;;;;;5045052;28;20404;-69
2022/01/28 14:12:41;;;;;;;8.07;6.50;;;7.70;99.90;;;;;;5044827;28;20456;-70
2022/01/28 14:15:26;;;;;;;9.73;6.87;;;7.70;99.90;;;;;;5026825;28;20419;-71
2022/01/28 14:17:52;;;;;;;8.20;6.20;;;7.60;99.90;;;;;;5044860;28;20406;-71
2022/01/28 14:20:18;;;;;;;8.23;6.63;;;7.60;99.90;;;;;;5044667;28;20416;-69
2022/01/28 14:22:44;;;;;;;7.53;6.10;;;7.60;99.90;;;;;;5044573;28;20774;-70
2022/01/28 14:25:09;;;;;;;9.80;7.00;;;7.70;99.90;;;;;;5043552;28;20176;-70
2022/01/28 14:30:35;;;;;;;7.90;6.23;;;7.80;99.90;;;;;;5045058;28;20664;-71
2022/01/28 14:32:54;;;;;;;9.60;5.90;;;7.60;99.90;;;;;;5043466;28;20433;-71
2022/01/28 14:35:20;;;;;;;6.80;5.80;;;7.50;99.90;;;;;;5045332;28;20919;-73
2022/01/28 14:37:46;;;;;;;8.13;5.70;;;7.80;99.90;;;;;;5044252;28;20738;-72
2022/01/28 14:40:13;;;;;;;8.77;6.07;;;8.00;99.90;;;;;;5044496;28;20488;-72
2022/01/28 14:42:39;;;;;;;8.20;6.60;;;8.00;99.90;;;;;;5044672;28;20721;-68
2022/01/28 14:45:05;;;;;;;8.73;6.00;;;8.00;99.90;;;;;;5043892;28;20426;-70
2022/01/28 14:47:31;;;;;;;10.80;6.63;;;7.80;99.90;;;;;;5044304;28;20446;-72
2022/01/28 14:49:57;;;;;;;9.73;5.83;;;7.90;99.90;;;;;;5045135;28;20428;-72
2022/01/28 14:52:28;;;;;;;8.60;5.90;;;7.80;99.90;;;;;;5026440;28;20196;-69